Latest Weather Observations for Terrey Hills

IDN60801

Issued at 3:32 pm EST Tuesday 31 May 2016 (issued every 30 minutes, with the page automatically refreshed every 10 minutes)

About weather observations | Map of weather stations | Latest weather observations for NSW | Other Formats
Station Details ID: 066059 Name: TERREY HILLS AWS Lat: -33.69 Lon: 151.23 Height: 199.0 m
Data from the previous 72 hours. | See also: Recent months at Terrey Hills
Date/Time
EST
Temp
°C
App
Temp
°C
Dew
Point
Rel
Hum
%
Delta-T
°C
Wind Press
QNH
hPa
Press
MSL
hPa
Rain
since 9 am
mm
Dir
 
Spd
km/h
Gust
km/h
Spd
kts
Gust
kts
31/03:30pm 16.0 15.7 13.3 84 1.5 ESE 7 13 4 7 - - 0.0
31/03:00pm 15.5 15.2 13.3 87 1.2 ESE 7 13 4 7 - - 0.0
31/02:30pm 14.8 13.7 13.0 89 1.0 E 11 17 6 9 - - 0.0
31/02:00pm 15.2 14.7 12.5 84 1.5 ESE 7 15 4 8 - - 0.0
31/01:30pm 16.2 15.2 12.4 78 2.1 ESE 9 17 5 9 - - 0.0
31/01:00pm 14.6 13.5 13.1 91 0.8 ESE 11 17 6 9 - - 0.0
31/12:30pm 16.1 16.0 12.1 77 2.2 SE 4 9 2 5 - - 0.0
31/12:00pm 15.7 15.2 11.9 78 2.1 SSE 6 11 3 6 - - 0.0
31/11:30am 15.6 14.9 11.4 76 2.3 S 6 9 3 5 - - 0.0
31/11:00am 15.8 15.0 11.8 77 2.2 SW 7 11 4 6 - - 0.0
31/10:30am 15.3 14.6 12.1 81 1.8 SW 7 11 4 6 - - 0.0
31/10:00am 13.3 12.4 11.2 87 1.1 WSW 7 11 4 6 - - 0.0
31/09:30am 12.2 11.1 10.6 90 0.8 W 7 13 4 7 - - 0.0
31/09:00am 11.4 10.3 10.0 91 0.7 WSW 6 9 3 5 - - 0.0
31/08:30am 10.4 8.4 8.5 88 0.9 W 9 13 5 7 - - 0.0
31/08:00am 9.8 7.4 8.6 92 0.6 W 11 20 6 11 - - 0.0
31/07:30am 9.0 6.8 7.8 92 0.6 W 9 13 5 7 - - 0.0
31/07:00am 8.5 6.2 7.4 93 0.5 WNW 9 13 5 7 - - 0.0
31/06:30am 7.9 5.4 6.5 91 0.6 W 9 15 5 8 - - 0.0
31/06:00am 8.0 4.7 6.5 90 0.7 W 13 17 7 9 - - 0.0
31/05:30am 7.7 4.4 6.2 90 0.7 WNW 13 15 7 8 - - 0.0
31/05:00am 8.5 5.2 6.5 87 0.9 W 13 17 7 9 - - 0.0
31/04:30am 8.6 5.3 6.4 86 1.0 W 13 17 7 9 - - 0.0
31/04:00am 8.5 5.1 6.1 85 1.1 W 13 17 7 9 - - 0.0
31/03:30am 8.3 4.6 6.3 87 0.9 W 15 19 8 10 - - 0.0
31/03:00am 7.9 4.5 5.7 86 1.0 W 13 17 7 9 - - 0.0
31/02:30am 7.9 4.5 5.9 87 0.9 W 13 17 7 9 - - 0.0
31/02:00am 7.6 4.2 5.9 89 0.8 WNW 13 15 7 8 - - 0.0
31/01:30am 8.5 5.6 6.5 87 0.9 W 11 15 6 8 - - 0.0
31/01:00am 7.9 4.9 5.9 87 0.9 WNW 11 13 6 7 - - 0.0
31/12:30am 8.3 5.3 5.9 85 1.1 W 11 15 6 8 - - 0.0
31/12:00am 8.4 5.4 6.0 85 1.1 W 11 13 6 7 - - 0.0
 
Date/Time
EST
Temp
°C
App
Temp
°C
Dew
Point
Rel
Hum
%
Delta-T
°C
Wind Press
QNH
hPa
Press
MSL
hPa
Rain
since 9 am
mm
Dir
 
Spd
km/h
Gust
km/h
Spd
kts
Gust
kts
30/11:30pm 8.9 5.9 5.8 81 1.4 W 11 15 6 8 - - 0.0
30/11:00pm 9.3 6.3 5.9 79 1.6 W 11 13 6 7 - - 0.0
30/10:30pm 9.1 5.9 5.1 76 1.8 W 11 13 6 7 - - 0.0
30/10:00pm 9.7 6.5 4.9 72 2.2 WSW 11 15 6 8 - - 0.0
30/09:30pm 9.6 6.7 4.4 70 2.3 W 9 13 5 7 - - 0.0
30/09:00pm 10.2 7.4 3.3 62 3.0 WSW 7 11 4 6 - - 0.0
30/08:30pm 11.0 8.6 4.5 64 3.0 SW 6 9 3 5 - - 0.0
30/08:00pm 12.0 9.7 4.7 61 3.4 SW 6 7 3 4 - - 0.0
30/07:30pm 12.1 10.2 4.8 61 3.4 SW 4 6 2 3 - - 0.0
30/07:00pm 11.8 9.4 4.3 60 3.4 SW 6 7 3 4 - - 0.0
30/06:30pm 12.1 10.0 3.9 57 3.7 SW 4 7 2 4 - - 0.0
30/06:00pm 12.7 10.7 2.3 49 4.6 SSW 2 6 1 3 - - 0.0
30/05:30pm 12.3 10.5 1.0 46 4.8 CALM 0 0 0 0 - - 0.0
30/05:00pm 12.9 11.1 1.0 44 5.1 CALM 0 2 0 1 - - 0.0
30/04:30pm 14.2 11.9 0.5 39 5.9 SW 2 4 1 2 - - 0.0
30/04:00pm 15.9 13.1 -0.3 33 6.9 SW 4 7 2 4 - - 0.0
30/03:30pm 15.9 12.6 -1.6 30 7.3 SSW 6 7 3 4 - - 0.0
30/03:00pm 16.3 13.1 -0.4 32 7.2 SW 6 11 3 6 - - 0.0
30/02:30pm 16.2 13.2 1.1 36 6.7 SSW 6 13 3 7 - - 0.0
30/02:00pm 16.2 13.0 -0.5 32 7.1 WSW 6 13 3 7 - - 0.0
30/01:30pm 16.0 13.1 2.4 40 6.2 SSW 7 13 4 7 - - 0.0
30/01:00pm 15.5 12.6 2.7 42 5.8 SW 7 13 4 7 - - 0.0
30/12:30pm 15.1 12.3 3.3 45 5.4 SW 7 13 4 7 - - 0.0
30/12:00pm 15.0 12.5 3.5 46 5.3 SW 6 11 3 6 - - 0.0
30/11:30am 14.9 12.3 3.4 46 5.3 SW 6 9 3 5 - - 0.0
30/11:00am 13.9 11.1 3.1 48 4.9 SW 7 15 4 8 - - 0.0
30/10:30am 12.6 9.3 2.5 50 4.5 W 9 15 5 8 - - 0.0
30/10:00am 11.8 8.9 2.8 54 4.0 W 7 17 4 9 - - 0.0
30/09:30am 10.8 7.6 2.9 58 3.5 W 9 17 5 9 - - 0.0
30/09:00am 9.5 6.2 2.4 61 3.0 W 9 19 5 10 - - 0.0
30/08:30am 8.5 4.4 2.1 64 2.7 W 13 24 7 13 - - 0.0
30/08:00am 7.2 3.0 1.5 67 2.3 W 13 24 7 13 - - 0.0
30/07:30am 6.3 1.7 1.4 71 2.0 W 15 22 8 12 - - 0.0
30/07:00am 6.0 1.4 1.3 72 1.9 W 15 22 8 12 - - 0.0
30/06:30am 5.8 1.1 1.2 72 1.8 W 15 20 8 11 - - 0.0
30/06:00am 6.0 1.3 1.2 71 1.9 W 15 24 8 13 - - 0.0
30/05:30am 5.9 1.2 1.2 72 1.9 W 15 20 8 11 - - 0.0
30/05:00am 6.1 1.4 1.1 70 2.0 W 15 20 8 11 - - 0.0
30/04:30am 6.2 1.6 1.3 71 2.0 W 15 20 8 11 - - 0.0
30/04:00am 6.3 1.6 1.2 70 2.1 W 15 20 8 11 - - 0.0
30/03:30am 6.7 2.0 1.2 68 2.2 W 15 24 8 13 - - 0.0
30/03:00am 6.8 2.9 0.9 66 2.4 W 11 19 6 10 - - 0.0
30/02:30am 7.3 3.0 1.0 64 2.6 W 13 24 7 13 - - 0.0
30/02:00am 7.4 2.7 1.0 64 2.6 W 15 22 8 12 - - 0.0
30/01:30am 8.0 3.3 1.2 62 2.8 W 15 24 8 13 - - 0.0
30/01:00am 8.6 3.6 1.1 59 3.1 WSW 17 28 9 15 - - 0.0
30/12:30am 8.8 3.8 1.2 59 3.1 WSW 17 26 9 14 - - 0.0
30/12:00am 8.6 4.0 1.3 60 3.0 WSW 15 24 8 13 - - 0.0
 
Date/Time
EST
Temp
°C
App
Temp
°C
Dew
Point
Rel
Hum
%
Delta-T
°C
Wind Press
QNH
hPa
Press
MSL
hPa
Rain
since 9 am
mm
Dir
 
Spd
km/h
Gust
km/h
Spd
kts
Gust
kts
29/11:30pm 8.5 4.6 1.4 61 2.9 W 11 17 6 9 - - 0.0
29/11:00pm 8.6 5.1 1.3 60 3.0 WSW 9 13 5 7 - - 0.0
29/10:30pm 9.2 5.3 1.1 57 3.4 WSW 11 22 6 12 - - 0.0
29/10:00pm 8.3 4.4 1.2 61 2.9 W 11 17 6 9 - - 0.0
29/09:30pm 9.6 5.6 0.8 54 3.6 WSW 11 17 6 9 - - 0.0
29/09:00pm 11.1 7.1 0.2 47 4.5 WSW 11 15 6 8 - - 0.0
29/08:30pm 11.2 6.8 0.3 47 4.5 WSW 13 19 7 10 - - 0.0
29/08:00pm 12.4 7.9 -0.1 42 5.2 SW 13 19 7 10 - - 0.0
29/07:30pm 12.8 9.1 -0.1 41 5.4 SW 9 13 5 7 - - 0.0
29/07:00pm 12.5 8.5 0.3 43 5.1 WSW 11 19 6 10 - - 0.0
29/06:30pm 12.7 9.7 0.5 43 5.2 W 6 6 3 3 - - 0.0
29/06:00pm 13.3 11.3 0.0 40 5.6 CALM 0 0 0 0 - - 0.0
29/05:30pm 12.5 10.5 -0.4 41 5.3 CALM 0 0 0 0 - - 0.0
29/05:00pm 13.7 11.7 -0.3 38 5.9 CALM 0 0 0 0 - - 0.0
29/04:30pm 14.9 12.9 0.0 36 6.4 CALM 0 2 0 1 - - 0.0
29/04:00pm 16.0 13.3 0.2 34 6.8 SSW 4 7 2 4 - - 0.0
29/03:30pm 16.4 13.0 -0.3 32 7.2 SW 7 11 4 6 - - 0.0
29/03:00pm 16.5 13.1 -0.7 31 7.3 SW 7 17 4 9 - - 0.0
29/02:30pm 16.8 13.2 0.9 34 7.0 WSW 9 19 5 10 - - 0.0
29/02:00pm 16.2 11.4 -0.1 33 7.0 WSW 15 24 8 13 - - 0.0
29/01:30pm 16.0 11.1 -0.2 33 7.0 WSW 15 26 8 14 - - 0.0
29/01:00pm 16.0 12.8 1.0 36 6.6 W 7 15 4 8 - - 0.0
29/12:30pm 15.1 10.8 1.3 39 6.1 W 13 24 7 13 - - 0.0
29/12:00pm 14.7 11.0 2.6 44 5.4 WSW 11 20 6 11 - - 0.0
29/11:30am 14.2 9.8 2.8 46 5.1 WSW 15 28 8 15 - - 0.0
29/11:00am 13.9 9.5 2.5 46 5.1 WSW 15 33 8 18 - - 0.0
29/10:30am 13.4 9.3 2.3 47 4.9 W 13 28 7 15 - - 0.0
29/10:00am 12.6 8.1 1.9 48 4.7 WSW 15 28 8 15 - - 0.0
29/09:30am 11.8 7.7 2.5 53 4.1 W 13 24 7 13 - - 0.0
29/09:00am 11.1 7.8 2.7 56 3.7 WNW 9 15 5 8 - - 2.4
29/08:30am 10.2 7.0 2.8 60 3.2 W 9 13 5 7 - - 2.4
29/08:00am 9.1 6.2 2.4 63 2.9 WNW 7 9 4 5 - - 2.4
29/07:30am 7.8 4.9 2.5 69 2.2 WNW 7 9 4 5 - - 2.4
29/07:00am 7.2 4.3 2.5 72 2.0 WNW 7 11 4 6 - - 2.4
29/06:30am 7.2 3.9 2.5 72 2.0 W 9 13 5 7 - - 2.4
29/06:00am 7.4 4.1 2.3 70 2.1 W 9 13 5 7 - - 2.4
29/05:30am 7.5 4.2 2.4 70 2.1 W 9 13 5 7 - - 2.4
29/05:00am 7.6 4.3 2.5 70 2.1 W 9 13 5 7 - - 2.4
29/04:30am 8.0 4.7 2.3 67 2.4 WNW 9 17 5 9 - - 2.4
29/04:00am 8.3 5.3 2.3 66 2.5 WNW 7 15 4 8 - - 2.4
29/03:30am 8.2 5.0 2.9 69 2.3 WNW 9 15 5 8 - - 2.4
29/03:00am 8.3 5.4 2.8 68 2.3 WNW 7 13 4 7 - - 2.4
29/02:30am 8.1 5.2 2.8 69 2.3 WNW 7 11 4 6 - - 2.4
29/02:00am 8.3 5.1 3.2 70 2.2 WNW 9 13 5 7 - - 2.4
29/01:30am 8.3 5.2 3.4 71 2.1 WNW 9 13 5 7 - - 2.4
29/01:00am 8.5 5.4 3.4 70 2.2 W 9 13 5 7 - - 2.4
29/12:30am 8.9 5.4 3.7 70 2.3 W 11 19 6 10 - - 2.4
29/12:00am 8.7 5.3 4.1 73 2.0 W 11 20 6 11 - - 2.4
 
Date/Time
EST
Temp
°C
App
Temp
°C
Dew
Point
Rel
Hum
%
Delta-T
°C
Wind Press
QNH
hPa
Press
MSL
hPa
Rain
since 9 am
mm
Dir
 
Spd
km/h
Gust
km/h
Spd
kts
Gust
kts
28/11:30pm 8.6 5.3 4.6 76 1.8 W 11 17 6 9 - - 2.4
28/11:00pm 9.4 6.1 4.4 71 2.2 W 11 20 6 11 - - 2.4
28/10:30pm 9.3 6.1 4.9 74 2.0 W 11 17 6 9 - - 2.4
28/10:00pm 8.7 5.9 5.1 78 1.6 W 9 17 5 9 - - 2.4
28/09:30pm 9.0 6.2 5.2 77 1.7 W 9 17 5 9 - - 2.4
28/09:00pm 9.3 6.5 5.3 76 1.8 W 9 17 5 9 - - 2.4
28/08:30pm 10.5 7.2 4.6 67 2.7 W 11 20 6 11 - - 2.4
28/08:00pm 10.4 7.2 5.0 69 2.5 W 11 19 6 10 - - 2.4
28/07:30pm 10.8 7.9 4.7 66 2.8 W 9 17 5 9 - - 2.4
28/07:00pm 11.4 7.7 4.6 63 3.1 WSW 13 24 7 13 - - 2.4
28/06:30pm 11.8 7.3 4.3 60 3.4 WSW 17 28 9 15 - - 2.4
28/06:00pm 12.0 8.3 4.7 61 3.4 WSW 13 19 7 10 - - 2.4
28/05:30pm 12.1 9.6 6.4 68 2.7 WSW 9 17 5 9 - - 2.4
28/05:00pm 12.6 10.1 6.4 66 3.0 WSW 9 15 5 8 - - 2.4
28/04:30pm 13.0 9.8 5.2 59 3.7 WSW 11 17 6 9 - - 2.4
28/04:00pm 13.1 10.9 6.0 62 3.4 W 7 13 4 7 - - 2.4

Other Formats:

Comma delimited format used in spreadsheet applications
http://www.bom.gov.au/fwo/IDN60801/IDN60801.94759.axf

JavaScript Object Notation format (JSON) in row-major order
http://www.bom.gov.au/fwo/IDN60801/IDN60801.94759.json